createdAt,value
2019-05-07T00:01:33.923Z,75.72
2019-05-07T00:04:03.853Z,75.80
2019-05-07T00:06:34.267Z,75.88
2019-05-07T00:09:06.242Z,75.98
2019-05-07T00:11:36.565Z,76.07
2019-05-07T00:14:07.387Z,76.19
2019-05-07T00:16:38.900Z,76.27
2019-05-07T00:19:09.498Z,76.38
2019-05-07T00:21:42.099Z,76.47
2019-05-07T00:24:13.266Z,76.55
2019-05-07T00:26:43.673Z,76.67
2019-05-07T00:29:14.210Z,76.73
2019-05-07T00:31:44.650Z,76.84
2019-05-07T00:34:16.605Z,76.90
2019-05-07T00:37:07.577Z,77.03
2019-05-07T00:39:45.008Z,77.14
2019-05-07T00:42:26.753Z,77.17
2019-05-07T00:45:15.921Z,77.19
2019-05-07T00:47:32.981Z,77.28
2019-05-07T00:50:08.529Z,77.31
2019-05-07T00:52:38.971Z,77.36
2019-05-07T00:55:09.491Z,77.41
2019-05-07T00:57:39.868Z,77.45
2019-05-07T01:00:13.062Z,77.53
2019-05-07T01:02:43.537Z,77.57
2019-05-07T01:05:14.036Z,77.62
2019-05-07T01:07:44.502Z,77.68
2019-05-07T01:10:15.528Z,77.72
2019-05-07T01:12:46.068Z,77.76
2019-05-07T01:15:27.867Z,77.79
2019-05-07T01:17:48.944Z,77.83
2019-05-07T01:20:19.343Z,77.88
2019-05-07T01:22:50.054Z,77.97
2019-05-07T01:25:26.931Z,78.03
2019-05-07T01:27:57.345Z,78.08
2019-05-07T01:30:27.756Z,78.11
2019-05-07T01:33:12.255Z,78.13
2019-05-07T01:36:13.434Z,78.20
2019-05-07T01:38:44.015Z,78.26
2019-05-07T01:41:14.295Z,78.32
2019-05-07T01:43:44.642Z,78.33
2019-05-07T01:46:15.049Z,78.37
2019-05-07T01:48:45.283Z,78.39
2019-05-07T01:51:16.018Z,78.50
2019-05-07T01:53:46.395Z,78.54
2019-05-07T01:56:16.783Z,78.59
2019-05-07T01:58:47.247Z,78.65
2019-05-07T02:01:17.631Z,78.71
2019-05-07T02:04:19.010Z,78.78
2019-05-07T02:07:20.264Z,78.86
2019-05-07T02:10:09.508Z,78.90
2019-05-07T02:12:42.419Z,78.94
2019-05-07T02:15:12.687Z,78.91
2019-05-07T02:17:43.149Z,78.98
2019-05-07T02:20:13.573Z,79.02
2019-05-07T02:22:44.062Z,79.06
2019-05-07T02:25:14.497Z,79.15
2019-05-07T02:27:45.756Z,79.16
2019-05-07T02:30:16.573Z,79.20
2019-05-07T02:32:46.798Z,79.25
2019-05-07T02:35:17.296Z,79.31
2019-05-07T02:37:56.606Z,79.38
2019-05-07T02:40:36.882Z,79.43
2019-05-07T02:43:07.525Z,79.45
2019-05-07T02:45:46.620Z,79.53
2019-05-07T02:48:23.493Z,79.56
2019-05-07T02:50:57.836Z,79.58
2019-05-07T02:53:37.600Z,79.67
2019-05-07T02:56:08.057Z,79.69
2019-05-07T02:58:38.343Z,79.75
2019-05-07T03:01:08.628Z,79.74
2019-05-07T03:03:39.051Z,79.81
2019-05-07T03:06:09.375Z,79.82
2019-05-07T03:08:39.944Z,79.85
2019-05-07T03:11:13.726Z,79.86
2019-05-07T03:13:43.258Z,79.90
2019-05-07T03:16:14.016Z,79.94
2019-05-07T03:18:44.427Z,79.92
2019-05-07T03:21:16.974Z,80.05
2019-05-07T03:24:03.500Z,80.06
2019-05-07T03:26:39.689Z,79.96
2019-05-07T03:29:14.857Z,79.98
2019-05-07T03:31:56.598Z,79.96
2019-05-07T03:34:47.293Z,80.01
2019-05-07T03:37:23.227Z,80.08
2019-05-07T03:39:53.795Z,80.07
2019-05-07T03:42:24.324Z,80.19
2019-05-07T03:45:13.826Z,80.22
2019-05-07T03:47:46.577Z,80.28
2019-05-07T03:50:17.058Z,80.34
2019-05-07T03:52:47.438Z,80.33
2019-05-07T03:55:18.033Z,80.35
2019-05-07T03:57:48.339Z,80.40
2019-05-07T04:00:19.101Z,80.42
2019-05-07T04:02:49.163Z,80.45
2019-05-07T04:05:19.294Z,80.41
2019-05-07T04:07:49.467Z,80.38
2019-05-07T04:10:22.939Z,80.40
2019-05-07T04:12:53.389Z,80.41
2019-05-07T04:15:23.812Z,80.50
2019-05-07T04:17:54.052Z,80.52
2019-05-07T04:20:24.270Z,80.59
2019-05-07T04:22:54.552Z,80.59
2019-05-07T04:25:43.791Z,80.59
2019-05-07T04:28:39.007Z,80.60
2019-05-07T04:31:09.236Z,80.61
2019-05-07T04:33:43.966Z,80.57
2019-05-07T04:36:23.067Z,80.55
2019-05-07T04:38:53.514Z,80.52
2019-05-07T04:41:23.808Z,80.49
2019-05-07T04:43:54.348Z,80.46
2019-05-07T04:46:24.784Z,80.45
2019-05-07T04:48:55.148Z,80.42
2019-05-07T04:51:33.568Z,80.37
2019-05-07T04:54:06.453Z,80.31
2019-05-07T04:56:36.835Z,80.25
2019-05-07T04:59:06.959Z,80.19
2019-05-07T05:01:43.640Z,80.15
2019-05-07T05:04:25.424Z,80.14
2019-05-07T05:06:45.888Z,80.08
2019-05-07T05:09:16.126Z,80.00
2019-05-07T05:11:46.497Z,79.93
2019-05-07T05:14:16.813Z,79.85
2019-05-07T05:16:47.070Z,79.75
2019-05-07T05:19:17.320Z,79.65
2019-05-07T05:22:02.017Z,79.54
2019-05-07T05:24:39.478Z,79.42
2019-05-07T05:27:12.081Z,79.29
2019-05-07T05:29:42.980Z,79.17
2019-05-07T05:32:13.346Z,79.04
2019-05-07T05:34:43.626Z,78.87
2019-05-07T05:37:13.800Z,78.70
2019-05-07T05:39:44.148Z,78.56
2019-05-07T05:42:33.062Z,78.43
2019-05-07T05:45:03.430Z,78.29
2019-05-07T05:47:33.642Z,78.16
2019-05-07T05:50:05.417Z,77.95
2019-05-07T05:52:42.524Z,77.70
2019-05-07T05:55:15.593Z,77.45
2019-05-07T05:58:12.358Z,77.21
2019-05-07T06:01:02.571Z,76.87
2019-05-07T06:03:44.558Z,76.66
2019-05-07T06:06:24.029Z,76.22
2019-05-07T06:09:01.939Z,75.82
2019-05-07T06:11:42.996Z,75.45
2019-05-07T06:14:33.033Z,75.15
2019-05-07T06:17:19.309Z,74.88
2019-05-07T06:20:12.216Z,74.47
2019-05-07T06:23:01.911Z,74.07
2019-05-07T06:25:33.473Z,73.65
2019-05-07T06:28:03.516Z,73.31
2019-05-07T06:30:33.873Z,72.58
2019-05-07T06:33:04.074Z,72.29
2019-05-07T06:35:34.289Z,71.83
2019-05-07T06:38:06.363Z,71.29
2019-05-07T06:40:43.846Z,70.51
2019-05-07T06:43:32.548Z,69.81
2019-05-07T06:46:03.315Z,69.13
2019-05-07T06:48:41.944Z,68.71
2019-05-07T06:51:05.380Z,68.04
2019-05-07T06:53:35.670Z,67.48
2019-05-07T06:56:07.047Z,67.15
2019-05-07T06:59:02.341Z,66.74
2019-05-07T07:01:53.267Z,66.25
2019-05-07T07:04:29.563Z,65.73
2019-05-07T07:07:23.009Z,64.93
2019-05-07T07:09:58.763Z,64.04
2019-05-07T07:12:30.188Z,63.38
2019-05-07T07:15:02.571Z,62.95
2019-05-07T07:17:32.764Z,62.19
2019-05-07T07:20:03.055Z,61.45
2019-05-07T07:22:33.332Z,60.86
2019-05-07T07:25:06.489Z,60.62
2019-05-07T07:27:35.523Z,60.25
2019-05-07T07:30:44.494Z,59.32
2019-05-07T07:33:15.791Z,58.99
2019-05-07T07:35:46.010Z,58.38
2019-05-07T07:38:34.781Z,57.73
2019-05-07T07:41:16.452Z,57.32
2019-05-07T07:43:46.606Z,56.72
2019-05-07T07:46:16.810Z,55.94
2019-05-07T07:48:47.128Z,55.71
2019-05-07T07:51:17.370Z,54.83
2019-05-07T07:53:47.569Z,54.22
2019-05-07T07:56:48.894Z,53.91
2019-05-07T07:59:22.207Z,53.14
2019-05-07T08:01:57.663Z,52.14
2019-05-07T08:04:27.844Z,51.57
2019-05-07T08:07:03.987Z,51.24
2019-05-07T08:09:36.745Z,50.72
2019-05-07T08:12:07.058Z,50.33
2019-05-07T08:14:37.431Z,49.32
2019-05-07T08:17:08.644Z,49.15
2019-05-07T08:19:38.854Z,48.61
2019-05-07T08:22:09.097Z,48.18
2019-05-07T08:24:48.422Z,48.18
2019-05-07T08:27:18.986Z,47.82
2019-05-07T08:29:49.208Z,47.91
2019-05-07T08:32:38.341Z,47.49
2019-05-07T08:35:16.591Z,47.15
2019-05-07T08:37:46.817Z,46.84
2019-05-07T08:40:16.945Z,46.63
2019-05-07T08:42:47.205Z,46.48
2019-05-07T08:45:43.196Z,46.28
2019-05-07T08:48:18.714Z,46.01
2019-05-07T08:50:49.013Z,46.03
2019-05-07T08:53:19.182Z,46.09
2019-05-07T08:55:49.416Z,45.52
2019-05-07T08:58:19.619Z,45.31
2019-05-07T09:00:49.749Z,45.50
2019-05-07T09:03:38.807Z,45.62
2019-05-07T09:06:09.050Z,45.31
2019-05-07T09:08:39.290Z,44.96
2019-05-07T09:11:09.584Z,44.86
2019-05-07T09:13:41.986Z,44.79
2019-05-07T09:16:12.891Z,44.91
2019-05-07T09:18:43.334Z,45.31
2019-05-07T09:21:13.469Z,45.32
2019-05-07T09:23:43.625Z,45.69
2019-05-07T09:26:15.490Z,45.72
2019-05-07T09:29:13.687Z,45.73
2019-05-07T09:32:03.038Z,45.88
2019-05-07T09:34:36.775Z,45.92
2019-05-07T09:37:09.240Z,45.94
2019-05-07T09:39:39.384Z,45.76
2019-05-07T09:42:09.595Z,45.84
2019-05-07T09:44:39.670Z,45.67
2019-05-07T09:47:09.927Z,45.60
2019-05-07T09:49:41.911Z,44.85
2019-05-07T09:52:12.344Z,44.41
2019-05-07T09:54:42.938Z,43.87
2019-05-07T09:57:27.330Z,43.32
2019-05-07T09:59:45.307Z,43.15
2019-05-07T10:02:15.534Z,43.04
2019-05-07T10:04:45.776Z,43.83
2019-05-07T10:07:16.041Z,43.55
2019-05-07T10:09:46.141Z,43.62
2019-05-07T10:12:28.994Z,43.98
2019-05-07T10:14:59.324Z,43.59
2019-05-07T10:17:52.877Z,43.85
2019-05-07T10:20:24.709Z,44.09
2019-05-07T10:22:56.547Z,44.67
2019-05-07T10:25:29.669Z,45.00
2019-05-07T10:28:01.918Z,45.25
2019-05-07T10:30:32.241Z,45.51
2019-05-07T10:33:02.535Z,45.56
2019-05-07T10:35:33.703Z,45.71
2019-05-07T10:38:04.224Z,45.72
2019-05-07T10:40:34.480Z,46.03
2019-05-07T10:43:05.044Z,46.03
2019-05-07T10:45:58.226Z,46.25
2019-05-07T10:48:40.594Z,45.57
2019-05-07T10:51:10.913Z,44.85
2019-05-07T10:53:42.430Z,44.30
2019-05-07T10:56:12.941Z,43.69
2019-05-07T10:58:43.199Z,43.18
2019-05-07T11:01:16.213Z,43.11
2019-05-07T11:03:46.446Z,42.88
2019-05-07T11:06:16.714Z,42.53
2019-05-07T11:08:46.945Z,43.05
2019-05-07T11:11:17.245Z,43.17
2019-05-07T11:13:47.484Z,42.96
2019-05-07T11:16:19.452Z,42.83
2019-05-07T11:18:51.770Z,42.90
2019-05-07T11:21:33.277Z,43.13
2019-05-07T11:24:03.589Z,43.18
2019-05-07T11:26:34.050Z,43.30
2019-05-07T11:29:04.354Z,43.06
2019-05-07T11:31:34.458Z,42.74
2019-05-07T11:34:04.815Z,42.60
2019-05-07T11:36:35.064Z,42.04
2019-05-07T11:39:06.524Z,42.23
2019-05-07T11:41:59.430Z,42.08
2019-05-07T11:44:32.017Z,41.21
2019-05-07T11:47:20.020Z,41.25
2019-05-07T11:50:07.930Z,40.58
2019-05-07T11:52:42.538Z,40.24
2019-05-07T11:55:13.055Z,39.96
2019-05-07T11:57:44.521Z,40.08
2019-05-07T12:00:28.803Z,39.66
2019-05-07T12:02:59.548Z,39.48
2019-05-07T12:05:29.819Z,39.63
2019-05-07T12:08:02.190Z,39.09
2019-05-07T12:10:32.852Z,39.11
2019-05-07T12:13:03.349Z,38.69
2019-05-07T12:15:33.785Z,38.64
2019-05-07T12:18:04.135Z,38.33
2019-05-07T12:20:34.681Z,38.40
2019-05-07T12:23:05.017Z,38.39
2019-05-07T12:25:35.321Z,38.41
2019-05-07T12:28:06.902Z,38.55
2019-05-07T12:30:54.785Z,38.87
2019-05-07T12:33:43.867Z,39.62
2019-05-07T12:36:15.182Z,39.91
2019-05-07T12:38:45.400Z,40.37
2019-05-07T12:41:41.876Z,40.11
2019-05-07T12:44:13.112Z,40.76
2019-05-07T12:46:43.524Z,41.18
2019-05-07T12:49:13.838Z,41.42
2019-05-07T12:51:52.888Z,41.34
2019-05-07T12:54:37.940Z,41.41
2019-05-07T12:57:08.303Z,41.03
2019-05-07T12:59:38.581Z,40.57
2019-05-07T13:02:38.044Z,40.62
2019-05-07T13:05:03.043Z,40.66
2019-05-07T13:07:49.456Z,39.76
2019-05-07T13:10:21.799Z,38.93
2019-05-07T13:12:52.632Z,38.04
2019-05-07T13:15:27.610Z,37.99
2019-05-07T13:17:55.104Z,37.35
2019-05-07T13:20:25.587Z,36.33
2019-05-07T13:22:55.855Z,35.80
2019-05-07T13:25:28.139Z,35.63
2019-05-07T13:27:58.089Z,35.82
2019-05-07T13:30:28.448Z,35.78
2019-05-07T13:33:02.012Z,36.23
2019-05-07T13:35:32.721Z,36.40
2019-05-07T13:38:23.452Z,36.01
2019-05-07T13:41:12.749Z,35.34
2019-05-07T13:44:17.259Z,33.29
2019-05-07T13:46:49.518Z,31.99
2019-05-07T13:49:21.895Z,32.58
2019-05-07T13:52:03.285Z,33.34
2019-05-07T13:54:24.153Z,32.99
2019-05-07T13:56:54.323Z,31.23
2019-05-07T13:59:24.608Z,29.54
2019-05-07T14:02:04.514Z,28.86
2019-05-07T14:04:34.020Z,28.41
2019-05-07T14:07:04.433Z,27.78
2019-05-07T14:09:34.770Z,27.50
2019-05-07T14:12:05.188Z,29.21
2019-05-07T14:14:35.560Z,30.48
2019-05-07T14:17:06.793Z,31.32
2019-05-07T14:19:36.961Z,31.19
2019-05-07T14:22:15.322Z,30.58
2019-05-07T14:24:39.150Z,28.54
2019-05-07T14:27:09.407Z,27.31
2019-05-07T14:29:39.729Z,27.22
2019-05-07T14:32:28.827Z,27.93
2019-05-07T14:35:32.741Z,29.30
2019-05-07T14:38:13.701Z,30.54
2019-05-07T14:40:42.691Z,31.94
2019-05-07T14:43:19.107Z,32.25
2019-05-07T14:45:49.502Z,31.42
2019-05-07T14:48:19.756Z,30.23
2019-05-07T14:50:50.022Z,30.01
2019-05-07T14:53:22.381Z,30.17
2019-05-07T14:55:52.555Z,30.78
2019-05-07T14:58:22.825Z,31.13
2019-05-07T15:00:53.133Z,30.98
2019-05-07T15:03:23.417Z,31.52
2019-05-07T15:05:53.713Z,31.63
2019-05-07T15:08:23.907Z,31.82
2019-05-07T15:10:54.222Z,32.30
2019-05-07T15:13:24.598Z,33.41
2019-05-07T15:15:54.853Z,33.80
2019-05-07T15:18:47.211Z,34.51
2019-05-07T15:21:17.817Z,34.94
2019-05-07T15:23:48.320Z,35.50
2019-05-07T15:26:18.723Z,35.71
2019-05-07T15:28:52.939Z,35.75
2019-05-07T15:31:42.402Z,36.19
2019-05-07T15:34:12.764Z,36.49
2019-05-07T15:36:43.042Z,36.34
2019-05-07T15:39:13.477Z,36.75
2019-05-07T15:41:43.778Z,37.21
2019-05-07T15:44:14.084Z,39.35
2019-05-07T15:46:44.311Z,42.24
2019-05-07T15:49:14.576Z,44.53
2019-05-07T15:51:44.883Z,46.69
2019-05-07T15:54:15.228Z,48.91
2019-05-07T15:56:45.585Z,50.58
2019-05-07T15:59:22.913Z,52.24
2019-05-07T16:03:54.974Z,60.22
2019-05-07T16:06:24.947Z,60.75
2019-05-07T16:08:59.064Z,61.47
2019-05-07T16:11:32.271Z,62.91
2019-05-07T16:14:14.952Z,64.03
2019-05-07T16:16:47.234Z,64.25
2019-05-07T16:19:28.656Z,64.45
2019-05-07T16:22:03.852Z,64.86
2019-05-07T16:24:34.557Z,64.84
2019-05-07T16:27:05.284Z,65.12
2019-05-07T16:29:38.316Z,65.30
2019-05-07T16:32:11.105Z,65.68
2019-05-07T16:34:45.659Z,65.87
2019-05-07T16:37:18.800Z,66.05
2019-05-07T16:39:52.740Z,66.26
2019-05-07T16:42:22.981Z,66.36
2019-05-07T16:44:53.214Z,66.52
2019-05-07T16:47:23.507Z,66.54
2019-05-07T16:49:53.848Z,66.36
2019-05-07T16:52:24.127Z,66.60
2019-05-07T16:54:54.430Z,66.69
2019-05-07T16:57:36.894Z,66.67
2019-05-07T17:00:12.557Z,66.72
2019-05-07T17:02:45.707Z,66.81
2019-05-07T17:05:16.398Z,67.10
2019-05-07T17:08:05.580Z,67.41
2019-05-07T17:10:36.000Z,67.69
2019-05-07T17:13:09.790Z,67.80
2019-05-07T17:15:55.611Z,68.11
2019-05-07T17:18:27.299Z,67.89
2019-05-07T17:20:58.829Z,67.65
2019-05-07T17:23:42.875Z,67.52
2019-05-07T17:26:01.297Z,67.51
2019-05-07T17:28:32.045Z,67.47
2019-05-07T17:31:03.089Z,67.50
2019-05-07T17:33:33.462Z,67.26
2019-05-07T17:36:03.800Z,67.03
2019-05-07T17:38:34.149Z,66.95
2019-05-07T17:41:13.533Z,67.04
2019-05-07T17:43:36.361Z,67.16
2019-05-07T17:46:06.812Z,67.26
2019-05-07T17:48:36.887Z,67.21
2019-05-07T17:51:25.968Z,67.06
2019-05-07T17:54:00.169Z,66.87
2019-05-07T17:56:31.875Z,66.66
2019-05-07T17:59:02.855Z,66.43
2019-05-07T18:02:01.945Z,66.22
2019-05-07T18:04:47.467Z,66.03
2019-05-07T18:07:07.803Z,65.84
2019-05-07T18:09:38.298Z,65.69
2019-05-07T18:12:08.820Z,65.54
2019-05-07T18:14:39.486Z,65.36
2019-05-07T18:17:27.288Z,65.20
2019-05-07T18:19:57.754Z,64.08
2019-05-07T18:22:28.458Z,62.63
2019-05-07T18:24:59.090Z,61.45
2019-05-07T18:27:29.616Z,60.59
2019-05-07T18:30:03.613Z,59.86
2019-05-07T18:32:42.714Z,59.50
2019-05-07T18:37:52.459Z,60.38
2019-05-07T18:40:23.880Z,60.61
2019-05-07T18:42:54.309Z,61.06
2019-05-07T18:45:24.866Z,61.52
2019-05-07T18:47:55.384Z,62.09
2019-05-07T18:50:28.610Z,62.65
2019-05-07T18:52:59.084Z,63.09
2019-05-07T18:55:29.862Z,63.61
2019-05-07T19:00:42.304Z,64.77
2019-05-07T19:03:12.591Z,65.12
2019-05-07T19:05:43.086Z,65.57
2019-05-07T19:08:13.740Z,65.97
2019-05-07T19:10:44.254Z,66.31
2019-05-07T19:13:14.798Z,67.74
2019-05-07T19:15:45.431Z,68.00
2019-05-07T19:18:15.932Z,68.16
2019-05-07T19:20:47.553Z,68.29
2019-05-07T19:23:18.421Z,68.44
2019-05-07T19:25:48.967Z,68.53
2019-05-07T19:28:19.616Z,68.66
2019-05-07T19:30:52.537Z,68.65
2019-05-07T19:33:26.843Z,68.66
2019-05-07T19:35:54.479Z,68.61
2019-05-07T19:38:25.051Z,68.60
2019-05-07T19:40:55.477Z,68.62
2019-05-07T19:43:25.943Z,68.71
2019-05-07T19:45:56.452Z,68.71
2019-05-07T19:48:27.011Z,68.73
2019-05-07T19:50:57.507Z,68.76
2019-05-07T19:53:28.179Z,68.76
2019-05-07T19:56:12.565Z,68.82
2019-05-07T19:58:43.064Z,68.89
2019-05-07T20:01:15.183Z,68.90
2019-05-07T20:03:45.759Z,69.05
2019-05-07T20:06:16.223Z,69.07
2019-05-07T20:08:46.779Z,69.15
2019-05-07T20:11:45.447Z,69.23
2019-05-07T20:14:15.980Z,69.30
2019-05-07T20:16:46.459Z,69.40
2019-05-07T20:19:16.936Z,69.49
2019-05-07T20:21:47.404Z,69.63
2019-05-07T20:24:17.887Z,69.71
2019-05-07T20:27:03.170Z,69.82
2019-05-07T20:29:33.730Z,69.90
2019-05-07T20:32:04.353Z,69.97
2019-05-07T20:37:18.703Z,70.21
2019-05-07T20:39:49.130Z,70.30
2019-05-07T20:42:19.535Z,70.40
2019-05-07T20:44:51.931Z,70.48
2019-05-07T20:47:23.520Z,70.53
2019-05-07T20:49:58.326Z,70.59
2019-05-07T20:52:32.635Z,70.67
2019-05-07T20:55:26.590Z,70.68
2019-05-07T20:57:50.879Z,70.74
2019-05-07T21:00:25.061Z,70.79
2019-05-07T21:03:12.861Z,70.84
2019-05-07T21:05:43.368Z,70.95
2019-05-07T21:08:13.857Z,71.01
2019-05-07T21:10:44.636Z,71.02
2019-05-07T21:13:27.463Z,71.10
2019-05-07T21:15:47.323Z,71.12
2019-05-07T21:18:17.859Z,71.14
2019-05-07T21:20:48.924Z,71.19
2019-05-07T21:23:19.319Z,71.23
2019-05-07T21:26:13.081Z,71.28
2019-05-07T21:28:43.521Z,71.39
2019-05-07T21:31:14.054Z,71.37
2019-05-07T21:33:44.475Z,71.41
2019-05-07T21:36:18.003Z,71.45
2019-05-07T21:38:48.509Z,71.46
2019-05-07T21:41:18.910Z,71.50
2019-05-07T21:43:49.484Z,71.47
2019-05-07T21:46:22.002Z,71.51
2019-05-07T21:48:53.732Z,71.55
2019-05-07T21:51:24.522Z,71.58
2019-05-07T21:54:12.373Z,71.67
2019-05-07T21:56:54.587Z,71.80
2019-05-07T21:59:26.348Z,71.85
2019-05-07T22:02:02.074Z,71.98
2019-05-07T22:04:31.965Z,72.18
2019-05-07T22:07:02.927Z,72.39
2019-05-07T22:09:33.292Z,72.53
2019-05-07T22:12:03.889Z,72.67
2019-05-07T22:14:34.135Z,72.85
2019-05-07T22:17:05.381Z,72.95
2019-05-07T22:19:35.679Z,73.09
2019-05-07T22:22:06.942Z,73.22
2019-05-07T22:24:37.135Z,73.34
2019-05-07T22:27:07.277Z,73.55
2019-05-07T22:29:37.599Z,73.72
2019-05-07T22:32:29.735Z,73.85
2019-05-07T22:35:22.666Z,73.95
2019-05-07T22:37:54.019Z,74.13
2019-05-07T22:40:24.198Z,74.29
2019-05-07T22:42:54.341Z,74.50
2019-05-07T22:45:24.534Z,74.73
2019-05-07T22:47:54.850Z,74.82
2019-05-07T22:50:25.068Z,74.94
2019-05-07T22:52:55.429Z,75.06
2019-05-07T22:55:25.627Z,75.31
2019-05-07T22:58:01.319Z,75.43
2019-05-07T23:00:37.717Z,75.59
2019-05-07T23:03:07.903Z,75.74
2019-05-07T23:05:38.096Z,75.88
2019-05-07T23:08:08.343Z,75.99
2019-05-07T23:10:38.518Z,76.18
2019-05-07T23:13:08.644Z,76.33
2019-05-07T23:15:38.888Z,76.41
2019-05-07T23:18:09.147Z,76.56
2019-05-07T23:20:39.221Z,76.68
2019-05-07T23:23:09.392Z,76.84
2019-05-07T23:25:40.063Z,76.96
2019-05-07T23:28:12.432Z,77.03
2019-05-07T23:30:44.240Z,77.15
2019-05-07T23:33:14.091Z,77.31
2019-05-07T23:35:44.438Z,77.38
2019-05-07T23:38:15.975Z,77.45
2019-05-07T23:41:05.116Z,77.50
2019-05-07T23:43:35.292Z,77.59
2019-05-07T23:46:06.598Z,77.69
2019-05-07T23:48:36.799Z,77.81
2019-05-07T23:51:06.876Z,77.87
2019-05-07T23:53:37.087Z,77.88
2019-05-07T23:56:07.270Z,77.92
2019-05-07T23:58:37.431Z,77.94
